PWSweather.com
Personal Weather Stations
Station Observations
GEELONGWX1
Bell Post Hill, GeelongAU

Bell Post HillGeelongAU

Lat: -38.101, Lon: 144.326

Elevation: 204

Station Type: Davis Vantage Pro2

http://www.geelongweather.com

High Low Average
Temperature 83.9°F28.8°C 63.3°F17.4°C 71.1°F21.7°C
Dew Point 66.1°F18.9°C 57.5°F14.2°C 61.9°F16.6°C
Winds 12.7 mph 20.4 kmh Calm Calm 3.0 mph SE4.8 kmh SE
Wind Gusts 16.1 mph25.9 kmh -- 5.0 mph8.0 kmh
Humidity 87% 52% 74%
Pressure 30.00 in1015.9 mb 29.82 in1009.8 mb -
Precipitation 0.00 in0.0 mm - -
Hour Temp Dew Point Humidity Winds Wind Gusts Pressure Precip Precip Rate Daily Precip Total
12:00 AM 69.8°F21.0°C 57.5°F14.2°C 65% 5.8 mph S9.3 kmh S 9.2 mph14.8 kmh 29.88 in1011.9 mb - 0.00 in0.0 mm 0.00 in0.0 mm
12:10 AM 69.9°F21.1°C 59.3°F15.2°C 69% 5.8 mph S9.3 kmh S 6.9 mph11.1 kmh 29.88 in1011.9 mb - 0.00 in0.0 mm 0.00 in0.0 mm
12:20 AM 69.9°F21.1°C 59.7°F15.4°C 70% 1.2 mph SE1.9 kmh SE 3.5 mph5.6 kmh 29.88 in1011.9 mb - 0.00 in0.0 mm 0.00 in0.0 mm
12:30 AM 69.7°F20.9°C 58.7°F14.8°C 68% 5.8 mph SE9.3 kmh SE 10.4 mph16.7 kmh 29.88 in1011.9 mb - 0.00 in0.0 mm 0.00 in0.0 mm
12:40 AM 69.5°F20.8°C 58.1°F14.5°C 67% 3.5 mph SE5.6 kmh SE 6.9 mph11.1 kmh 29.89 in1012.2 mb - 0.00 in0.0 mm 0.00 in0.0 mm
12:50 AM 69.4°F20.8°C 58.0°F14.4°C 67% 5.8 mph SE9.3 kmh SE 8.1 mph13.0 kmh 29.89 in1012.2 mb - 0.00 in0.0 mm 0.00 in0.0 mm
01:00 AM 69.2°F20.7°C 57.8°F14.3°C 67% 3.5 mph SSE5.6 kmh SSE 4.6 mph7.4 kmh 29.90 in1012.5 mb - 0.00 in0.0 mm 0.00 in0.0 mm
01:10 AM 69.0°F20.6°C 58.4°F14.7°C 69% 2.3 mph SE3.7 kmh SE 3.5 mph5.6 kmh 29.90 in1012.5 mb - 0.00 in0.0 mm 0.00 in0.0 mm
01:20 AM 69.0°F20.6°C 59.6°F15.3°C 72% Calm Calm 1.2 mph1.9 kmh 29.89 in1012.2 mb - 0.00 in0.0 mm 0.00 in0.0 mm
01:30 AM 69.0°F20.6°C 59.6°F15.3°C 72% 1.2 mph SSE1.9 kmh SSE 1.2 mph1.9 kmh 29.88 in1011.9 mb - 0.00 in0.0 mm 0.00 in0.0 mm
01:40 AM 68.7°F20.4°C 59.3°F15.2°C 72% Calm Calm 1.2 mph1.9 kmh 29.87 in1011.5 mb - 0.00 in0.0 mm 0.00 in0.0 mm
01:50 AM 68.4°F20.2°C 59.0°F15.0°C 72% Calm Calm 1.2 mph1.9 kmh 29.88 in1011.9 mb - 0.00 in0.0 mm 0.00 in0.0 mm
02:00 AM 68.1°F20.1°C 59.1°F15.1°C 73% 1.2 mph E1.9 kmh E 3.5 mph5.6 kmh 29.88 in1011.9 mb - 0.00 in0.0 mm 0.00 in0.0 mm
02:10 AM 68.3°F20.2°C 60.5°F15.8°C 76% 3.5 mph E5.6 kmh E 3.5 mph5.6 kmh 29.88 in1011.9 mb - 0.00 in0.0 mm 0.00 in0.0 mm
02:20 AM 68.2°F20.1°C 60.7°F15.9°C 77% Calm Calm 1.2 mph1.9 kmh 29.87 in1011.5 mb - 0.00 in0.0 mm 0.00 in0.0 mm
02:30 AM 67.9°F19.9°C 60.1°F15.6°C 76% Calm Calm 2.3 mph3.7 kmh 29.87 in1011.5 mb - 0.00 in0.0 mm 0.00 in0.0 mm
02:40 AM 67.7°F19.8°C 60.6°F15.9°C 78% 1.2 mph ESE1.9 kmh ESE 3.5 mph5.6 kmh 29.88 in1011.9 mb - 0.00 in0.0 mm 0.00 in0.0 mm
02:50 AM 67.4°F19.7°C 60.7°F15.9°C 79% 1.2 mph SE1.9 kmh SE 3.5 mph5.6 kmh 29.88 in1011.9 mb - 0.00 in0.0 mm 0.00 in0.0 mm
03:00 AM 67.3°F19.6°C 61.3°F16.3°C 81% 1.2 mph ESE1.9 kmh ESE 4.6 mph7.4 kmh 29.88 in1011.9 mb - 0.00 in0.0 mm 0.00 in0.0 mm
03:10 AM 67.1°F19.5°C 61.4°F16.3°C 82% 2.3 mph E3.7 kmh E 4.6 mph7.4 kmh 29.89 in1012.2 mb - 0.00 in0.0 mm 0.00 in0.0 mm
03:20 AM 67.0°F19.4°C 61.3°F16.3°C 82% 3.5 mph SE5.6 kmh SE 5.8 mph9.3 kmh 29.89 in1012.2 mb - 0.00 in0.0 mm 0.00 in0.0 mm
03:30 AM 66.7°F19.3°C 61.4°F16.3°C 83% 2.3 mph ENE3.7 kmh ENE 3.5 mph5.6 kmh 29.89 in1012.2 mb - 0.00 in0.0 mm 0.00 in0.0 mm
03:40 AM 66.5°F19.2°C 61.1°F16.2°C 83% 2.3 mph ESE3.7 kmh ESE 3.5 mph5.6 kmh 29.89 in1012.2 mb - 0.00 in0.0 mm 0.00 in0.0 mm
03:50 AM 66.2°F19.0°C 60.9°F16.1°C 83% 1.2 mph ESE1.9 kmh ESE 3.5 mph5.6 kmh 29.89 in1012.2 mb - 0.00 in0.0 mm 0.00 in0.0 mm
04:00 AM 66.0°F18.9°C 60.7°F15.9°C 83% 2.3 mph ESE3.7 kmh ESE 3.5 mph5.6 kmh 29.89 in1012.2 mb - 0.00 in0.0 mm 0.00 in0.0 mm
04:10 AM 65.8°F18.8°C 60.8°F16.0°C 84% 2.3 mph SE3.7 kmh SE 3.5 mph5.6 kmh 29.89 in1012.2 mb - 0.00 in0.0 mm 0.00 in0.0 mm
04:20 AM 65.6°F18.7°C 60.6°F15.9°C 84% 1.2 mph ESE1.9 kmh ESE 1.2 mph1.9 kmh 29.89 in1012.2 mb - 0.00 in0.0 mm 0.00 in0.0 mm
04:30 AM 65.3°F18.5°C 60.3°F15.7°C 84% Calm Calm 1.2 mph1.9 kmh 29.89 in1012.2 mb - 0.00 in0.0 mm 0.00 in0.0 mm
04:40 AM 65.0°F18.3°C 59.8°F15.4°C 83% Calm Calm 1.2 mph1.9 kmh 29.89 in1012.2 mb - 0.00 in0.0 mm 0.00 in0.0 mm
04:50 AM 64.8°F18.2°C 59.5°F15.3°C 83% Calm Calm 1.2 mph1.9 kmh 29.89 in1012.2 mb - 0.00 in0.0 mm 0.00 in0.0 mm
05:00 AM 64.5°F18.1°C 59.2°F15.1°C 83% Calm Calm 1.2 mph1.9 kmh 29.89 in1012.2 mb - 0.00 in0.0 mm 0.00 in0.0 mm
05:10 AM 64.2°F17.9°C 58.9°F14.9°C 83% Calm Calm -- 29.89 in1012.2 mb - 0.00 in0.0 mm 0.00 in0.0 mm
05:20 AM 63.9°F17.7°C 58.7°F14.8°C 83% Calm Calm -- 29.89 in1012.2 mb - 0.00 in0.0 mm 0.00 in0.0 mm
05:30 AM 63.7°F17.6°C 58.4°F14.7°C 83% Calm Calm -- 29.89 in1012.2 mb - 0.00 in0.0 mm 0.00 in0.0 mm
05:40 AM 63.5°F17.5°C 58.2°F14.6°C 83% Calm Calm 1.2 mph1.9 kmh 29.90 in1012.5 mb - 0.00 in0.0 mm 0.00 in0.0 mm
05:50 AM 63.3°F17.4°C 58.0°F14.4°C 83% Calm Calm 1.2 mph1.9 kmh 29.91 in1012.9 mb - 0.00 in0.0 mm 0.00 in0.0 mm
06:00 AM 63.4°F17.4°C 58.5°F14.7°C 84% Calm Calm -- 29.91 in1012.9 mb - 0.00 in0.0 mm 0.00 in0.0 mm
06:10 AM 63.9°F17.7°C 59.3°F15.2°C 85% Calm Calm -- 29.91 in1012.9 mb - 0.00 in0.0 mm 0.00 in0.0 mm
06:20 AM 64.8°F18.2°C 60.9°F16.1°C 87% Calm Calm 1.2 mph1.9 kmh 29.91 in1012.9 mb - 0.00 in0.0 mm 0.00 in0.0 mm
06:30 AM 65.8°F18.8°C 61.8°F16.6°C 87% 1.2 mph SSE1.9 kmh SSE 2.3 mph3.7 kmh 29.91 in1012.9 mb - 0.00 in0.0 mm 0.00 in0.0 mm
06:40 AM 66.4°F19.1°C 62.4°F16.9°C 87% 2.3 mph E3.7 kmh E 3.5 mph5.6 kmh 29.92 in1013.2 mb - 0.00 in0.0 mm 0.00 in0.0 mm
06:50 AM 66.9°F19.4°C 62.9°F17.2°C 87% 1.2 mph ESE1.9 kmh ESE 2.3 mph3.7 kmh 29.92 in1013.2 mb - 0.00 in0.0 mm 0.00 in0.0 mm
07:00 AM 67.6°F19.8°C 63.6°F17.6°C 87% 2.3 mph ESE3.7 kmh ESE 3.5 mph5.6 kmh 29.92 in1013.2 mb - 0.00 in0.0 mm 0.00 in0.0 mm
07:10 AM 68.4°F20.2°C 64.1°F17.8°C 86% Calm Calm -- 29.92 in1013.2 mb - 0.00 in0.0 mm 0.00 in0.0 mm
07:20 AM 69.5°F20.8°C 64.4°F18.0°C 84% 2.3 mph NE3.7 kmh NE 3.5 mph5.6 kmh 29.92 in1013.2 mb - 0.00 in0.0 mm 0.00 in0.0 mm
07:30 AM 70.5°F21.4°C 64.1°F17.8°C 80% 1.2 mph NE1.9 kmh NE 2.3 mph3.7 kmh 29.91 in1012.9 mb - 0.00 in0.0 mm 0.00 in0.0 mm
07:40 AM 71.6°F22.0°C 64.7°F18.2°C 79% Calm Calm -- 29.91 in1012.9 mb - 0.00 in0.0 mm 0.00 in0.0 mm
07:50 AM 72.9°F22.7°C 64.5°F18.1°C 75% Calm Calm -- 29.91 in1012.9 mb - 0.00 in0.0 mm 0.00 in0.0 mm
08:00 AM 73.9°F23.3°C 64.7°F18.2°C 73% 2.3 mph NNW3.7 kmh NNW 3.5 mph5.6 kmh 29.91 in1012.9 mb - 0.00 in0.0 mm 0.00 in0.0 mm
08:10 AM 74.9°F23.8°C 64.9°F18.3°C 71% 3.5 mph N5.6 kmh N 6.9 mph11.1 kmh 29.91 in1012.9 mb - 0.00 in0.0 mm 0.00 in0.0 mm
08:20 AM 75.7°F24.3°C 64.9°F18.3°C 69% 2.3 mph NNE3.7 kmh NNE 3.5 mph5.6 kmh 29.91 in1012.9 mb - 0.00 in0.0 mm 0.00 in0.0 mm
08:30 AM 76.3°F24.6°C 64.5°F18.1°C 67% 1.2 mph NE1.9 kmh NE 2.3 mph3.7 kmh 29.91 in1012.9 mb - 0.00 in0.0 mm 0.00 in0.0 mm
08:40 AM 76.9°F24.9°C 64.2°F17.9°C 65% Calm Calm -- 29.91 in1012.9 mb - 0.00 in0.0 mm 0.00 in0.0 mm
08:50 AM 77.6°F25.3°C 64.9°F18.3°C 65% Calm Calm -- 29.91 in1012.9 mb - 0.00 in0.0 mm 0.00 in0.0 mm
09:00 AM 78.7°F25.9°C 65.0°F18.3°C 63% Calm Calm -- 29.91 in1012.9 mb - 0.00 in0.0 mm 0.00 in0.0 mm
09:10 AM 79.7°F26.5°C 65.0°F18.3°C 61% Calm Calm -- 29.91 in1012.9 mb - 0.00 in0.0 mm 0.00 in0.0 mm
09:20 AM 80.6°F27.0°C 65.9°F18.8°C 61% Calm Calm -- 29.91 in1012.9 mb - 0.00 in0.0 mm 0.00 in0.0 mm
09:30 AM 81.2°F27.3°C 65.0°F18.3°C 58% Calm Calm -- 29.91 in1012.9 mb - 0.00 in0.0 mm 0.00 in0.0 mm
09:40 AM 81.4°F27.4°C 65.2°F18.4°C 58% 2.3 mph NE3.7 kmh NE 6.9 mph11.1 kmh 29.91 in1012.9 mb - 0.00 in0.0 mm 0.00 in0.0 mm
09:50 AM 81.5°F27.5°C 64.8°F18.2°C 57% 3.5 mph N5.6 kmh N 6.9 mph11.1 kmh 29.91 in1012.9 mb - 0.00 in0.0 mm 0.00 in0.0 mm
10:00 AM 81.6°F27.6°C 65.4°F18.6°C 58% 1.2 mph NE1.9 kmh NE 2.3 mph3.7 kmh 29.90 in1012.5 mb - 0.00 in0.0 mm 0.00 in0.0 mm
10:10 AM 81.8°F27.7°C 65.1°F18.4°C 57% Calm Calm -- 29.90 in1012.5 mb - 0.00 in0.0 mm 0.00 in0.0 mm
10:20 AM 82.4°F28.0°C 65.6°F18.7°C 57% 3.5 mph E5.6 kmh E 5.8 mph9.3 kmh 29.90 in1012.5 mb - 0.00 in0.0 mm 0.00 in0.0 mm
10:30 AM 83.2°F28.4°C 65.9°F18.8°C 56% 3.5 mph NNE5.6 kmh NNE 5.8 mph9.3 kmh 29.91 in1012.9 mb - 0.00 in0.0 mm 0.00 in0.0 mm
10:40 AM 83.8°F28.8°C 64.3°F17.9°C 52% 3.5 mph NE5.6 kmh NE 6.9 mph11.1 kmh 29.91 in1012.9 mb - 0.00 in0.0 mm 0.00 in0.0 mm
10:50 AM 83.8°F28.8°C 65.4°F18.6°C 54% 8.1 mph ENE13.0 kmh ENE 10.4 mph16.7 kmh 29.91 in1012.9 mb - 0.00 in0.0 mm 0.00 in0.0 mm
11:00 AM 83.3°F28.5°C 65.4°F18.6°C 55% 9.2 mph NE14.8 kmh NE 11.5 mph18.5 kmh 29.91 in1012.9 mb - 0.00 in0.0 mm 0.00 in0.0 mm
11:10 AM 83.5°F28.6°C 66.1°F18.9°C 56% 4.6 mph E7.4 kmh E 6.9 mph11.1 kmh 29.91 in1012.9 mb - 0.00 in0.0 mm 0.00 in0.0 mm
11:20 AM 83.9°F28.8°C 65.5°F18.6°C 54% 6.9 mph ENE11.1 kmh ENE 9.2 mph14.8 kmh 29.92 in1013.2 mb - 0.00 in0.0 mm 0.00 in0.0 mm
11:30 AM 83.4°F28.6°C 65.0°F18.3°C 54% 8.1 mph E13.0 kmh E 11.5 mph18.5 kmh 29.92 in1013.2 mb - 0.00 in0.0 mm 0.00 in0.0 mm
11:40 AM 83.1°F28.4°C 64.2°F17.9°C 53% 4.6 mph ENE7.4 kmh ENE 10.4 mph16.7 kmh 29.92 in1013.2 mb - 0.00 in0.0 mm 0.00 in0.0 mm
11:50 AM 81.3°F27.4°C 63.5°F17.5°C 55% 6.9 mph ENE11.1 kmh ENE 9.2 mph14.8 kmh 29.92 in1013.2 mb - 0.00 in0.0 mm 0.00 in0.0 mm
12:00 PM 80.3°F26.8°C 63.7°F17.6°C 57% 5.8 mph ENE9.3 kmh ENE 11.5 mph18.5 kmh 29.92 in1013.2 mb - 0.00 in0.0 mm 0.00 in0.0 mm
12:10 PM 79.3°F26.3°C 63.8°F17.7°C 59% 4.6 mph E7.4 kmh E 6.9 mph11.1 kmh 29.92 in1013.2 mb - 0.00 in0.0 mm 0.00 in0.0 mm
12:20 PM 79.0°F26.1°C 63.9°F17.7°C 60% 4.6 mph E7.4 kmh E 11.5 mph18.5 kmh 29.92 in1013.2 mb - 0.00 in0.0 mm 0.00 in0.0 mm
12:30 PM 78.7°F25.9°C 63.7°F17.6°C 60% 8.1 mph ENE13.0 kmh ENE 10.4 mph16.7 kmh 29.93 in1013.5 mb - 0.00 in0.0 mm 0.00 in0.0 mm
12:40 PM 77.5°F25.3°C 63.0°F17.2°C 61% 8.1 mph E13.0 kmh E 10.4 mph16.7 kmh 29.94 in1013.9 mb - 0.00 in0.0 mm 0.00 in0.0 mm
12:50 PM 76.2°F24.6°C 62.6°F17.0°C 63% 12.7 mph E20.4 kmh E 16.1 mph25.9 kmh 29.95 in1014.2 mb - 0.00 in0.0 mm 0.00 in0.0 mm
01:00 PM 74.8°F23.8°C 62.2°F16.8°C 65% 10.4 mph E16.7 kmh E 12.7 mph20.4 kmh 29.96 in1014.6 mb - 0.00 in0.0 mm 0.00 in0.0 mm
01:10 PM 73.5°F23.1°C 61.8°F16.6°C 67% 8.1 mph E13.0 kmh E 16.1 mph25.9 kmh 29.96 in1014.6 mb - 0.00 in0.0 mm 0.00 in0.0 mm
01:20 PM 72.6°F22.6°C 61.8°F16.6°C 69% 8.1 mph E13.0 kmh E 9.2 mph14.8 kmh 29.96 in1014.6 mb - 0.00 in0.0 mm 0.00 in0.0 mm
01:30 PM 72.4°F22.4°C 62.1°F16.7°C 70% 6.9 mph E11.1 kmh E 9.2 mph14.8 kmh 29.96 in1014.6 mb - 0.00 in0.0 mm 0.00 in0.0 mm
01:40 PM 72.5°F22.5°C 61.7°F16.5°C 69% 6.9 mph E11.1 kmh E 11.5 mph18.5 kmh 29.95 in1014.2 mb - 0.00 in0.0 mm 0.00 in0.0 mm
01:50 PM 72.2°F22.3°C 61.5°F16.4°C 69% 9.2 mph E14.8 kmh E 12.7 mph20.4 kmh 29.95 in1014.2 mb - 0.00 in0.0 mm 0.00 in0.0 mm
02:00 PM 71.8°F22.1°C 61.0°F16.1°C 69% 5.8 mph E9.3 kmh E 12.7 mph20.4 kmh 29.95 in1014.2 mb - 0.00 in0.0 mm 0.00 in0.0 mm
02:10 PM 71.3°F21.8°C 61.0°F16.1°C 70% 5.8 mph E9.3 kmh E 8.1 mph13.0 kmh 29.96 in1014.6 mb - 0.00 in0.0 mm 0.00 in0.0 mm
02:20 PM 70.9°F21.6°C 61.0°F16.1°C 71% 6.9 mph ENE11.1 kmh ENE 10.4 mph16.7 kmh 29.96 in1014.6 mb - 0.00 in0.0 mm 0.00 in0.0 mm
02:30 PM 70.6°F21.4°C 60.8°F16.0°C 71% 6.9 mph E11.1 kmh E 9.2 mph14.8 kmh 29.96 in1014.6 mb - 0.00 in0.0 mm 0.00 in0.0 mm
02:40 PM 70.5°F21.4°C 61.0°F16.1°C 72% 3.5 mph NE5.6 kmh NE 6.9 mph11.1 kmh 29.96 in1014.6 mb - 0.00 in0.0 mm 0.00 in0.0 mm
02:50 PM 70.6°F21.4°C 61.1°F16.2°C 72% 3.5 mph ENE5.6 kmh ENE 4.6 mph7.4 kmh 29.97 in1014.9 mb - 0.00 in0.0 mm 0.00 in0.0 mm
03:00 PM 70.8°F21.6°C 61.3°F16.3°C 72% 3.5 mph NE5.6 kmh NE 3.5 mph5.6 kmh 29.97 in1014.9 mb - 0.00 in0.0 mm 0.00 in0.0 mm
03:10 PM 70.8°F21.6°C 61.3°F16.3°C 72% 2.3 mph NE3.7 kmh NE 3.5 mph5.6 kmh 29.97 in1014.9 mb - 0.00 in0.0 mm 0.00 in0.0 mm
03:20 PM 70.8°F21.6°C 61.3°F16.3°C 72% 2.3 mph ENE3.7 kmh ENE 3.5 mph5.6 kmh 29.96 in1014.6 mb - 0.00 in0.0 mm 0.00 in0.0 mm
03:30 PM 70.9°F21.6°C 61.4°F16.3°C 72% 3.5 mph NNE5.6 kmh NNE 3.5 mph5.6 kmh 29.95 in1014.2 mb - 0.00 in0.0 mm 0.00 in0.0 mm
03:40 PM 70.9°F21.6°C 61.4°F16.3°C 72% 4.6 mph ENE7.4 kmh ENE 8.1 mph13.0 kmh 29.96 in1014.6 mb - 0.00 in0.0 mm 0.00 in0.0 mm
03:50 PM 70.9°F21.6°C 61.4°F16.3°C 72% 2.3 mph NE3.7 kmh NE 3.5 mph5.6 kmh 29.96 in1014.6 mb - 0.00 in0.0 mm 0.00 in0.0 mm
04:00 PM 70.8°F21.6°C 61.7°F16.5°C 73% 1.2 mph NE1.9 kmh NE 3.5 mph5.6 kmh 29.99 in1015.6 mb - 0.00 in0.0 mm 0.00 in0.0 mm
04:10 PM 70.8°F21.6°C 61.7°F16.5°C 73% 1.2 mph N1.9 kmh N 3.5 mph5.6 kmh 30.00 in1015.9 mb - 0.00 in0.0 mm 0.00 in0.0 mm
04:20 PM 70.7°F21.5°C 61.7°F16.5°C 73% 5.8 mph NNE9.3 kmh NNE 8.1 mph13.0 kmh 29.94 in1013.9 mb - 0.00 in0.0 mm 0.00 in0.0 mm
04:30 PM 70.4°F21.3°C 61.3°F16.3°C 73% 4.6 mph NNE7.4 kmh NNE 9.2 mph14.8 kmh 29.92 in1013.2 mb - 0.00 in0.0 mm 0.00 in0.0 mm
04:40 PM 70.0°F21.1°C 61.3°F16.3°C 74% 3.5 mph NE5.6 kmh NE 6.9 mph11.1 kmh 29.94 in1013.9 mb - 0.00 in0.0 mm 0.00 in0.0 mm
04:50 PM 69.9°F21.1°C 61.6°F16.4°C 75% 3.5 mph NNE5.6 kmh NNE 5.8 mph9.3 kmh 29.95 in1014.2 mb - 0.00 in0.0 mm 0.00 in0.0 mm
05:00 PM 69.8°F21.0°C 61.5°F16.4°C 75% 1.2 mph N1.9 kmh N 3.5 mph5.6 kmh 29.94 in1013.9 mb - 0.00 in0.0 mm 0.00 in0.0 mm
05:10 PM 69.7°F20.9°C 61.8°F16.6°C 76% 5.8 mph N9.3 kmh N 9.2 mph14.8 kmh 29.94 in1013.9 mb - 0.00 in0.0 mm 0.00 in0.0 mm
05:20 PM 69.5°F20.8°C 61.6°F16.4°C 76% 4.6 mph N7.4 kmh N 6.9 mph11.1 kmh 29.93 in1013.5 mb - 0.00 in0.0 mm 0.00 in0.0 mm
05:30 PM 69.4°F20.8°C 61.5°F16.4°C 76% 5.8 mph N9.3 kmh N 8.1 mph13.0 kmh 29.93 in1013.5 mb - 0.00 in0.0 mm 0.00 in0.0 mm
05:40 PM 69.3°F20.7°C 61.7°F16.5°C 77% 5.8 mph N9.3 kmh N 9.2 mph14.8 kmh 29.93 in1013.5 mb - 0.00 in0.0 mm 0.00 in0.0 mm
05:50 PM 69.2°F20.7°C 61.7°F16.5°C 77% 4.6 mph NNE7.4 kmh NNE 6.9 mph11.1 kmh 29.92 in1013.2 mb - 0.00 in0.0 mm 0.00 in0.0 mm
06:00 PM 69.2°F20.7°C 62.0°F16.7°C 78% 3.5 mph NNE5.6 kmh NNE 3.5 mph5.6 kmh 29.92 in1013.2 mb - 0.00 in0.0 mm 0.00 in0.0 mm
06:10 PM 69.2°F20.7°C 62.0°F16.7°C 78% 4.6 mph N7.4 kmh N 9.2 mph14.8 kmh 29.92 in1013.2 mb - 0.00 in0.0 mm 0.00 in0.0 mm
06:20 PM 69.2°F20.7°C 61.7°F16.5°C 77% 2.3 mph NNW3.7 kmh NNW 3.5 mph5.6 kmh 29.91 in1012.9 mb - 0.00 in0.0 mm 0.00 in0.0 mm
06:30 PM 69.2°F20.7°C 61.7°F16.5°C 77% 3.5 mph NNE5.6 kmh NNE 5.8 mph9.3 kmh 29.90 in1012.5 mb - 0.00 in0.0 mm 0.00 in0.0 mm
06:40 PM 69.3°F20.7°C 62.2°F16.8°C 78% 3.5 mph NE5.6 kmh NE 6.9 mph11.1 kmh 29.90 in1012.5 mb - 0.00 in0.0 mm 0.00 in0.0 mm
06:50 PM 69.4°F20.8°C 62.2°F16.8°C 78% 5.8 mph N9.3 kmh N 5.8 mph9.3 kmh 29.90 in1012.5 mb - 0.00 in0.0 mm 0.00 in0.0 mm
07:00 PM 69.4°F20.8°C 62.2°F16.8°C 78% 3.5 mph N5.6 kmh N 6.9 mph11.1 kmh 29.90 in1012.5 mb - 0.00 in0.0 mm 0.00 in0.0 mm
07:10 PM 69.4°F20.8°C 62.2°F16.8°C 78% 4.6 mph N7.4 kmh N 4.6 mph7.4 kmh 29.90 in1012.5 mb - 0.00 in0.0 mm 0.00 in0.0 mm
07:20 PM 69.3°F20.7°C 62.1°F16.7°C 78% 3.5 mph N5.6 kmh N 5.8 mph9.3 kmh 29.89 in1012.2 mb - 0.00 in0.0 mm 0.00 in0.0 mm
07:30 PM 69.3°F20.7°C 62.1°F16.7°C 78% 4.6 mph NNW7.4 kmh NNW 10.4 mph16.7 kmh 29.90 in1012.5 mb - 0.00 in0.0 mm 0.00 in0.0 mm
07:40 PM 69.2°F20.7°C 62.4°F16.9°C 79% 2.3 mph N3.7 kmh N 8.1 mph13.0 kmh 29.90 in1012.5 mb - 0.00 in0.0 mm 0.00 in0.0 mm
07:50 PM 69.1°F20.6°C 62.3°F16.8°C 79% 4.6 mph N7.4 kmh N 8.1 mph13.0 kmh 29.90 in1012.5 mb - 0.00 in0.0 mm 0.00 in0.0 mm
08:00 PM 69.0°F20.6°C 62.2°F16.8°C 79% 2.3 mph N3.7 kmh N 3.5 mph5.6 kmh 29.90 in1012.5 mb - 0.00 in0.0 mm 0.00 in0.0 mm
08:10 PM 68.9°F20.5°C 62.2°F16.8°C 79% 1.2 mph NNW1.9 kmh NNW 2.3 mph3.7 kmh 29.90 in1012.5 mb - 0.00 in0.0 mm 0.00 in0.0 mm
08:20 PM 68.9°F20.5°C 62.1°F16.7°C 79% 1.2 mph NNW1.9 kmh NNW 2.3 mph3.7 kmh 29.89 in1012.2 mb - 0.00 in0.0 mm 0.00 in0.0 mm
08:30 PM 68.8°F20.4°C 62.0°F16.7°C 79% 1.2 mph N1.9 kmh N 2.3 mph3.7 kmh 29.89 in1012.2 mb - 0.00 in0.0 mm 0.00 in0.0 mm
08:40 PM 68.7°F20.4°C 61.9°F16.6°C 79% Calm Calm -- 29.88 in1011.9 mb - 0.00 in0.0 mm 0.00 in0.0 mm
08:50 PM 68.6°F20.3°C 61.8°F16.6°C 79% Calm Calm -- 29.88 in1011.9 mb - 0.00 in0.0 mm 0.00 in0.0 mm
09:00 PM 68.5°F20.3°C 61.7°F16.5°C 79% Calm Calm -- 29.88 in1011.9 mb - 0.00 in0.0 mm 0.00 in0.0 mm
09:10 PM 68.3°F20.2°C 61.5°F16.4°C 79% Calm Calm 1.2 mph1.9 kmh 29.87 in1011.5 mb - 0.00 in0.0 mm 0.00 in0.0 mm
09:20 PM 68.2°F20.1°C 61.5°F16.4°C 79% Calm Calm 1.2 mph1.9 kmh 29.87 in1011.5 mb - 0.00 in0.0 mm 0.00 in0.0 mm
09:30 PM 68.2°F20.1°C 61.4°F16.3°C 79% Calm Calm -- 29.87 in1011.5 mb - 0.00 in0.0 mm 0.00 in0.0 mm
09:40 PM 68.1°F20.1°C 61.7°F16.5°C 80% Calm Calm 1.2 mph1.9 kmh 29.86 in1011.2 mb - 0.00 in0.0 mm 0.00 in0.0 mm
09:50 PM 68.1°F20.1°C 61.7°F16.5°C 80% 1.2 mph NW1.9 kmh NW 1.2 mph1.9 kmh 29.86 in1011.2 mb - 0.00 in0.0 mm 0.00 in0.0 mm
10:00 PM 68.1°F20.1°C 61.7°F16.5°C 80% Calm Calm 1.2 mph1.9 kmh 29.86 in1011.2 mb - 0.00 in0.0 mm 0.00 in0.0 mm
10:10 PM 68.0°F20.0°C 61.6°F16.4°C 80% 1.2 mph ENE1.9 kmh ENE 2.3 mph3.7 kmh 29.85 in1010.8 mb - 0.00 in0.0 mm 0.00 in0.0 mm
10:20 PM 67.9°F19.9°C 61.5°F16.4°C 80% Calm Calm -- 29.85 in1010.8 mb - 0.00 in0.0 mm 0.00 in0.0 mm
10:30 PM 67.9°F19.9°C 61.5°F16.4°C 80% Calm Calm -- 29.85 in1010.8 mb - 0.00 in0.0 mm 0.00 in0.0 mm
10:40 PM 67.8°F19.9°C 61.4°F16.3°C 80% Calm Calm -- 29.85 in1010.8 mb - 0.00 in0.0 mm 0.00 in0.0 mm
10:50 PM 67.9°F19.9°C 61.9°F16.6°C 81% Calm Calm -- 29.84 in1010.5 mb - 0.00 in0.0 mm 0.00 in0.0 mm
11:00 PM 68.1°F20.1°C 62.0°F16.7°C 81% Calm Calm -- 29.84 in1010.5 mb - 0.00 in0.0 mm 0.00 in0.0 mm
11:10 PM 68.3°F20.2°C 62.6°F17.0°C 82% Calm Calm -- 29.84 in1010.5 mb - 0.00 in0.0 mm 0.00 in0.0 mm
11:20 PM 68.4°F20.2°C 63.0°F17.2°C 83% Calm Calm -- 29.84 in1010.5 mb - 0.00 in0.0 mm 0.00 in0.0 mm
11:30 PM 68.5°F20.3°C 63.1°F17.3°C 83% 1.2 mph ENE1.9 kmh ENE 2.3 mph3.7 kmh 29.83 in1010.2 mb - 0.00 in0.0 mm 0.00 in0.0 mm
11:40 PM 68.5°F20.3°C 63.1°F17.3°C 83% 1.2 mph E1.9 kmh E 3.5 mph5.6 kmh 29.83 in1010.2 mb - 0.00 in0.0 mm 0.00 in0.0 mm
11:50 PM 68.5°F20.3°C 63.1°F17.3°C 83% 1.2 mph E1.9 kmh E 2.3 mph3.7 kmh 29.82 in1009.8 mb - 0.00 in0.0 mm 0.00 in0.0 mm